Time;durP1;ratioP1;P1;durP2;ratioP2;P2;SDS_P1;SDS_P2;PMS_P1;PMS_P2;Temp;Humidity;BMP_temperature;BMP_pressure;BME280_temperature;BME280_humidity;BME280_pressure;Samples;Min_cycle;Max_cycle;Signal;HPM_P1;HPM_P2
2023/09/04 00:02:12;;;;;;;2.00;1.50;;;;;;;14.68;82.11;99341.66;105948;1255;73809;-23
2023/09/04 00:04:39;;;;;;;2.10;1.50;;;;;;;14.92;81.30;99340.27;105762;1256;74760;-23
2023/09/04 00:07:06;;;;;;;2.40;1.60;;;;;;;15.37;79.46;99337.66;105887;1251;72492;-23
2023/09/04 00:09:34;;;;;;;3.60;2.20;;;;;;;15.17;79.82;99340.75;105724;1251;61069;-23
2023/09/04 00:12:01;;;;;;;2.40;2.20;;;;;;;14.87;81.32;99346.38;105772;1251;61242;-23
2023/09/04 00:14:28;;;;;;;2.00;1.60;;;;;;;14.74;82.43;99348.52;105732;1251;73704;-23
2023/09/04 00:16:55;;;;;;;2.60;1.50;;;;;;;14.96;81.69;99350.11;105847;1255;74316;-23
2023/09/04 00:19:22;;;;;;;3.20;2.30;;;;;;;15.34;79.75;99352.06;105921;1251;72527;-23
2023/09/04 00:21:49;;;;;;;2.50;2.10;;;;;;;15.48;78.66;99355.06;105977;1251;61042;-23
2023/09/04 00:24:17;;;;;;;2.30;2.10;;;;;;;15.28;79.58;99357.52;105915;1256;61111;-23
2023/09/04 00:26:44;;;;;;;4.10;2.10;;;;;;;14.98;80.94;99358.99;105879;1256;73788;-22
2023/09/04 00:29:11;;;;;;;2.20;1.40;;;;;;;14.75;82.48;99359.95;105754;1257;74263;-22
2023/09/04 00:31:38;;;;;;;2.60;1.90;;;;;;;14.85;82.38;99365.33;105893;1251;72718;-23
2023/09/04 00:34:05;;;;;;;2.30;1.80;;;;;;;15.11;81.13;99368.02;105722;1251;61144;-23
2023/09/04 00:36:32;;;;;;;3.40;2.00;;;;;;;15.12;80.91;99365.70;105781;1255;61099;-23
2023/09/04 00:38:59;;;;;;;3.60;2.90;;;;;;;15.03;81.42;99371.43;105918;1251;73793;-22
2023/09/04 00:41:26;;;;;;;4.50;2.50;;;;;;;14.92;82.21;99373.52;105793;1256;74364;-22
2023/09/04 00:43:53;;;;;;;2.50;1.20;;;;;;;14.77;83.01;99374.20;105879;1251;72624;-23
2023/09/04 00:46:20;;;;;;;2.30;1.80;;;;;;;15.16;81.85;99374.23;105666;1254;61164;-23
2023/09/04 00:48:47;;;;;;;3.10;1.80;;;;;;;15.51;79.83;99371.75;105847;1255;61175;-23
2023/09/04 00:51:16;;;;;;;3.20;2.60;;;;;;;15.38;80.17;99371.13;105754;1252;73859;-22
2023/09/04 00:53:42;;;;;;;4.40;2.10;;;;;;;15.20;80.87;99376.50;105847;1257;74544;-23
2023/09/04 00:56:10;;;;;;;4.90;2.30;;;;;;;14.96;82.25;99381.34;105922;1251;72575;-22
2023/09/04 00:58:37;;;;;;;3.10;1.80;;;;;;;14.66;83.44;99376.96;105692;1253;61180;-23
2023/09/04 01:01:04;;;;;;;3.10;1.80;;;;;;;14.79;83.78;99378.77;105966;1252;61166;-23
2023/09/04 01:03:31;;;;;;;2.80;2.10;;;;;;;14.97;82.77;99381.63;105809;1251;72684;-22
2023/09/04 01:05:59;;;;;;;4.50;2.20;;;;;;;14.95;82.65;99381.48;105977;1256;74154;-22
2023/09/04 01:08:27;;;;;;;6.20;2.20;;;;;;;14.72;84.03;99381.51;105923;1251;72499;-22
2023/09/04 01:11:11;;;;;;;3.00;2.10;;;;;;;14.52;84.91;99378.27;105877;1257;61173;-23
2023/09/04 01:13:46;;;;;;;;;;;;;;;14.52;85.25;99378.21;105680;1258;61172;-23
2023/09/04 01:16:13;;;;;;;2.40;1.90;;;;;;;14.76;84.42;99383.25;105566;1254;74360;-23
2023/09/04 01:18:41;;;;;;;2.40;2.10;;;;;;;15.03;83.50;99384.39;105623;1251;74375;-22
2023/09/04 01:21:08;;;;;;;4.00;2.00;;;;;;;14.80;84.04;99386.15;105696;1257;72489;-23
2023/09/04 01:23:35;;;;;;;3.10;2.30;;;;;;;14.77;84.29;99391.38;105585;1251;61020;-23
2023/09/04 01:26:05;;;;;;;2.50;1.60;;;;;;;14.48;85.65;99389.42;105841;1259;61096;-23
2023/09/04 01:28:42;;;;;;;6.20;2.10;;;;;;;14.98;84.30;99395.89;105981;1251;73811;-23
2023/09/04 01:31:27;;;;;;;6.00;1.90;;;;;;;15.21;82.16;99398.77;105729;1259;74275;-23
2023/09/04 01:34:01;;;;;;;4.40;2.30;;;;;;;15.08;82.94;99401.09;105958;1252;72662;-23
2023/09/04 01:36:29;;;;;;;3.10;2.60;;;;;;;14.93;83.63;99396.38;105853;1252;61115;-22
2023/09/04 01:38:56;;;;;;;2.30;1.60;;;;;;;14.65;85.38;99397.84;105814;1260;61217;-23
2023/09/04 01:41:23;;;;;;;3.00;2.00;;;;;;;14.95;84.88;99398.09;105633;1251;74394;-23
2023/09/04 01:43:50;;;;;;;3.30;2.40;;;;;;;15.04;83.59;99398.76;105959;1256;74355;-23
2023/09/04 01:46:17;;;;;;;2.60;2.40;;;;;;;14.97;83.76;99400.87;105901;1251;72660;-23
2023/09/04 01:48:44;;;;;;;2.40;2.20;;;;;;;14.87;84.63;99399.64;105827;1251;62618;-23
2023/09/04 01:51:11;;;;;;;2.40;2.20;;;;;;;14.76;85.00;99392.29;105672;1257;61113;-23
2023/09/04 01:53:38;;;;;;;3.60;2.10;;;;;;;14.56;86.12;99391.89;105666;1254;73845;-23
2023/09/04 01:56:04;;;;;;;4.60;2.20;;;;;;;14.79;85.79;99395.75;105918;1257;74214;-22
2023/09/04 01:58:31;;;;;;;3.40;2.20;;;;;;;14.77;86.70;99399.17;105817;1254;72695;-23
2023/09/04 02:00:58;;;;;;;3.10;2.70;;;;;;;14.68;87.08;99399.85;105659;1254;61171;-22
2023/09/04 02:03:25;;;;;;;3.50;2.40;;;;;;;14.37;89.51;99404.42;105568;1259;61150;-23
2023/09/04 02:05:52;;;;;;;2.60;2.00;;;;;;;14.28;90.85;99406.28;105685;1251;73664;-23
2023/09/04 02:08:20;;;;;;;5.50;2.50;;;;;;;14.50;90.85;99411.60;105853;1251;74354;-22
2023/09/04 02:10:48;;;;;;;7.60;2.70;;;;;;;14.42;91.24;99415.34;105812;1254;72527;-22
2023/09/04 02:13:15;;;;;;;4.50;2.50;;;;;;;14.33;91.98;99414.23;105701;1257;61143;-22
2023/09/04 02:15:41;;;;;;;3.90;2.10;;;;;;;14.47;92.59;99412.59;105636;1257;61121;-22
2023/09/04 02:18:08;;;;;;;4.00;2.20;;;;;;;14.88;90.32;99412.88;105790;1256;73799;-22
2023/09/04 02:20:35;;;;;;;3.40;2.90;;;;;;;15.06;88.93;99411.76;105668;1257;74691;-22
2023/09/04 02:23:03;;;;;;;8.50;2.80;;;;;;;14.81;89.46;99413.30;105883;1256;72716;-22
2023/09/04 02:25:29;;;;;;;5.00;2.10;;;;;;;14.37;92.36;99410.88;105825;1257;61240;-22
2023/09/04 02:27:56;;;;;;;5.50;3.30;;;;;;;14.34;93.09;99409.39;105966;1252;61099;-22
2023/09/04 02:30:23;;;;;;;75.60;50.70;;;;;;;14.57;92.43;99403.30;105870;1251;73805;-22
2023/09/04 02:32:50;;;;;;;38.80;28.60;;;;;;;14.72;91.39;99400.70;105960;1257;74317;-22
2023/09/04 02:35:17;;;;;;;17.00;9.10;;;;;;;14.62;91.82;99399.17;106030;1251;72554;-22
2023/09/04 02:37:44;;;;;;;11.30;6.30;;;;;;;14.43;93.31;99399.14;105957;1252;61720;-22
2023/09/04 02:40:11;;;;;;;16.70;12.60;;;;;;;14.98;91.40;99399.40;105905;1257;61051;-22
2023/09/04 02:42:38;;;;;;;22.00;10.90;;;;;;;15.15;89.19;99394.46;105966;1255;73679;-22
2023/09/04 02:45:07;;;;;;;33.90;14.20;;;;;;;15.23;88.33;99397.17;105913;1256;74097;-22
2023/09/04 02:47:37;;;;;;;31.20;11.80;;;;;;;15.07;88.86;99393.25;105611;1260;70931;-22
2023/09/04 02:50:05;;;;;;;45.20;16.80;;;;;;;14.97;89.31;99391.02;105807;1256;61141;-22
2023/09/04 02:52:33;;;;;;;19.90;8.90;;;;;;;14.62;90.80;99387.10;105555;1254;61023;-22
2023/09/04 02:55:02;;;;;;;39.20;14.50;;;;;;;14.78;91.09;99387.44;105755;1256;73747;-22
2023/09/04 02:57:29;;;;;;;10.90;5.30;;;;;;;15.09;88.69;99387.54;105565;1260;73195;-22
2023/09/04 03:00:00;;;;;;;13.20;5.30;;;;;;;15.09;88.63;99384.20;105786;1257;71175;-22
2023/09/04 03:02:27;;;;;;;8.90;5.50;;;;;;;14.94;89.25;99386.41;105452;1257;61032;-22
2023/09/04 03:04:55;;;;;;;6.20;2.70;;;;;;;14.75;90.22;99387.48;105875;1265;61087;-23
2023/09/04 03:07:25;;;;;;;6.20;3.10;;;;;;;15.17;88.75;99383.39;105524;1251;73829;-23
2023/09/04 03:09:56;;;;;;;16.80;6.40;;;;;;;15.54;86.25;99383.55;105734;1260;74733;-23
2023/09/04 03:12:25;;;;;;;19.90;10.40;;;;;;;15.59;85.38;99377.80;105681;1260;72487;-22
2023/09/04 03:14:56;;;;;;;9.60;5.30;;;;;;;15.21;86.61;99385.27;105749;1257;61073;-22
2023/09/04 03:17:24;;;;;;;14.40;8.30;;;;;;;15.07;87.69;99385.58;105725;1259;61170;-22
2023/09/04 03:19:53;;;;;;;11.80;6.60;;;;;;;14.86;89.10;99387.39;105857;1260;74205;-23
2023/09/04 03:22:21;;;;;;;6.10;3.90;;;;;;;15.08;88.50;99390.25;105729;1258;74209;-23
2023/09/04 03:24:49;;;;;;;3.70;2.70;;;;;;;15.48;86.47;99392.84;105701;1260;72490;-22
2023/09/04 03:27:16;;;;;;;3.40;2.70;;;;;;;15.46;85.64;99395.39;105954;1256;61061;-22
2023/09/04 03:29:43;;;;;;;3.70;3.00;;;;;;;15.19;86.79;99395.45;105809;1251;61663;-22
2023/09/04 03:32:11;;;;;;;3.30;3.00;;;;;;;14.79;88.85;99396.92;105643;1251;73777;-22
2023/09/04 03:34:39;;;;;;;4.40;2.50;;;;;;;14.54;90.81;99394.13;105782;1257;74202;-22
2023/09/04 03:37:06;;;;;;;4.80;2.50;;;;;;;15.14;88.48;99401.70;106019;1257;72623;-23
2023/09/04 03:39:37;;;;;;;5.00;2.80;;;;;;;15.24;86.74;99404.23;105864;1258;61246;-23
2023/09/04 03:42:05;;;;;;;3.20;2.70;;;;;;;15.14;87.04;99406.09;105716;1252;61102;-22
2023/09/04 03:44:32;;;;;;;3.90;3.40;;;;;;;14.95;87.84;99408.55;105826;1257;73763;-22
2023/09/04 03:46:59;;;;;;;10.60;6.50;;;;;;;14.68;89.40;99407.86;105889;1255;74346;-22
2023/09/04 03:49:26;;;;;;;8.90;5.80;;;;;;;14.97;89.17;99413.25;105733;1257;72496;-23
2023/09/04 03:51:53;;;;;;;41.60;22.80;;;;;;;15.05;87.71;99412.14;105849;1255;61039;-23
2023/09/04 03:54:22;;;;;;;30.20;17.30;;;;;;;15.07;87.85;99410.73;105873;1254;61115;-23
2023/09/04 03:56:50;;;;;;;6.90;4.80;;;;;;;14.85;88.50;99408.05;105707;1258;73792;-22
2023/09/04 03:59:17;;;;;;;4.60;2.30;;;;;;;14.86;89.46;99408.30;105779;1257;74265;-23
2023/09/04 04:01:44;;;;;;;3.70;2.30;;;;;;;15.41;88.21;99413.13;105745;1254;72585;-22
2023/09/04 04:04:14;;;;;;;3.90;2.80;;;;;;;15.96;85.81;99415.62;105771;1254;61144;-23
2023/09/04 04:06:41;;;;;;;4.20;2.90;;;;;;;16.02;83.87;99419.77;105529;1259;61165;-23
2023/09/04 04:09:11;;;;;;;4.90;3.10;;;;;;;15.81;83.82;99421.86;105538;1260;72701;-23
2023/09/04 04:11:38;;;;;;;4.50;3.00;;;;;;;15.57;84.45;99424.23;105806;1251;74909;-23
2023/09/04 04:14:05;;;;;;;3.90;1.90;;;;;;;15.35;85.84;99428.63;105944;1257;72635;-22
2023/09/04 04:16:34;;;;;;;2.40;1.90;;;;;;;15.67;85.36;99426.73;105931;1256;61153;-23
2023/09/04 04:19:01;;;;;;;5.20;2.90;;;;;;;15.95;83.47;99426.84;105799;1259;61137;-23
2023/09/04 04:21:28;;;;;;;3.50;2.90;;;;;;;15.88;83.30;99427.34;105964;1255;74192;-23
2023/09/04 04:23:55;;;;;;;3.90;2.80;;;;;;;15.46;84.85;99433.67;105927;1255;74405;-23
2023/09/04 04:26:22;;;;;;;10.70;3.60;;;;;;;15.29;86.32;99438.61;105866;1254;72590;-22
2023/09/04 04:28:49;;;;;;;6.30;2.60;;;;;;;15.05;87.95;99441.85;105871;1251;61982;-22
2023/09/04 04:31:17;;;;;;;3.70;2.40;;;;;;;15.59;86.61;99442.78;105809;1257;61266;-23
2023/09/04 04:33:44;;;;;;;4.00;2.60;;;;;;;15.84;84.61;99441.04;105658;1262;73775;-22
2023/09/04 04:36:12;;;;;;;4.30;3.10;;;;;;;15.85;84.01;99441.64;105837;1257;74712;-23
2023/09/04 04:38:39;;;;;;;4.80;3.40;;;;;;;15.27;86.00;99448.00;105667;1257;72459;-23
2023/09/04 04:41:07;;;;;;;5.70;4.20;;;;;;;14.96;88.41;99451.60;105674;1255;61144;-23
2023/09/04 04:43:35;;;;;;;4.00;2.50;;;;;;;14.79;90.46;99452.64;105577;1268;61141;-23
2023/09/04 04:46:01;;;;;;;14.80;8.00;;;;;;;15.13;88.97;99452.63;105780;1251;73584;-23
2023/09/04 04:48:29;;;;;;;9.10;6.10;;;;;;;15.56;86.38;99454.73;105946;1256;74377;-23
2023/09/04 04:50:56;;;;;;;46.40;27.90;;;;;;;15.14;87.81;99459.08;105747;1251;72516;-22
2023/09/04 04:53:24;;;;;;;41.20;21.60;;;;;;;15.21;88.22;99453.45;105907;1257;61141;-22
2023/09/04 04:55:51;;;;;;;21.80;12.20;;;;;;;14.90;89.55;99451.63;105990;1251;61013;-22
2023/09/04 04:58:18;;;;;;;29.80;14.40;;;;;;;15.15;88.86;99455.41;105924;1252;73796;-22
2023/09/04 05:00:45;;;;;;;20.90;11.30;;;;;;;15.48;87.04;99457.10;105942;1252;74623;-22
2023/09/04 05:03:12;;;;;;;39.20;21.50;;;;;;;15.35;86.87;99460.23;105865;1257;72444;-23
2023/09/04 05:05:44;;;;;;;14.10;10.10;;;;;;;15.50;86.31;99462.11;105627;1257;61139;-22
2023/09/04 05:08:12;;;;;;;12.70;7.20;;;;;;;15.40;86.51;99464.69;105725;1254;61295;-22
2023/09/04 05:10:39;;;;;;;8.30;4.10;;;;;;;15.09;88.14;99468.77;105938;1255;74378;-22
2023/09/04 05:13:06;;;;;;;4.80;3.40;;;;;;;15.08;88.53;99469.52;105967;1256;74331;-22
2023/09/04 05:15:34;;;;;;;15.00;7.10;;;;;;;15.63;86.40;99466.35;105906;1256;72534;-22
2023/09/04 05:18:01;;;;;;;18.90;11.00;;;;;;;15.39;86.24;99469.27;105871;1257;61073;-22
2023/09/04 05:20:29;;;;;;;9.50;6.50;;;;;;;15.15;88.01;99470.70;105905;1257;61163;-22
2023/09/04 05:22:56;;;;;;;14.70;7.60;;;;;;;15.15;88.33;99474.55;105947;1255;73680;-22
2023/09/04 05:25:25;;;;;;;4.90;3.80;;;;;;;14.96;88.89;99473.15;105730;1258;74360;-22
2023/09/04 05:27:51;;;;;;;4.60;3.00;;;;;;;15.33;88.53;99475.27;105904;1257;72687;-22
2023/09/04 05:30:18;;;;;;;3.80;3.20;;;;;;;15.73;86.07;99479.42;105979;1251;61125;-22
2023/09/04 05:32:46;;;;;;;4.50;3.80;;;;;;;15.78;85.26;99477.84;103774;1251;2970722;-22
2023/09/04 05:35:13;;;;;;;11.90;4.50;;;;;;;15.45;86.13;99475.20;105948;1258;73602;-23
2023/09/04 05:37:43;;;;;;;5.70;3.00;;;;;;;14.91;88.57;99477.03;105965;1257;74132;-22
2023/09/04 05:40:10;;;;;;;6.50;3.80;;;;;;;15.32;88.04;99480.24;105916;1252;73181;-22
2023/09/04 05:42:37;;;;;;;11.40;7.60;;;;;;;15.50;86.04;99481.91;105750;1257;61164;-22
2023/09/04 05:45:06;;;;;;;9.60;6.10;;;;;;;15.79;85.48;99482.31;105931;1264;61131;-22
2023/09/04 05:47:33;;;;;;;13.40;9.60;;;;;;;15.72;85.34;99476.70;105963;1257;73761;-22
2023/09/04 05:50:00;;;;;;;7.30;4.60;;;;;;;15.61;85.70;99477.95;105937;1256;74240;-22
2023/09/04 05:52:27;;;;;;;4.20;2.80;;;;;;;15.35;86.87;99484.18;105840;1253;72606;-23
2023/09/04 05:54:54;;;;;;;3.10;2.30;;;;;;;15.87;86.58;99485.38;105818;1256;61716;-22
2023/09/04 05:57:21;;;;;;;4.80;3.40;;;;;;;16.50;83.09;99481.02;105678;1252;61106;-22
2023/09/04 05:59:49;;;;;;;4.50;3.50;;;;;;;16.62;81.90;99479.48;105770;1257;73695;-22
2023/09/04 06:02:16;;;;;;;9.10;4.00;;;;;;;16.22;81.77;99487.29;105958;1256;74409;-22
2023/09/04 06:04:43;;;;;;;5.00;4.30;;;;;;;15.88;83.90;99492.69;105813;1251;72725;-22
2023/09/04 06:07:10;;;;;;;5.40;4.20;;;;;;;15.86;84.75;99496.36;105904;1251;61048;-22
2023/09/04 06:09:38;;;;;;;6.40;2.80;;;;;;;15.63;85.83;99498.02;105618;1258;61178;-22
2023/09/04 06:12:05;;;;;;;4.30;2.70;;;;;;;16.22;83.55;99499.93;105770;1252;73719;-22
2023/09/04 06:14:32;;;;;;;4.90;3.00;;;;;;;16.88;80.80;99497.25;105656;1255;73683;-22
2023/09/04 06:16:59;;;;;;;5.20;3.60;;;;;;;16.95;80.20;99498.02;105952;1251;73373;-22
2023/09/04 06:19:27;;;;;;;5.10;3.50;;;;;;;16.84;80.33;99505.23;105591;1260;61127;-22
2023/09/04 06:21:54;;;;;;;7.00;4.10;;;;;;;16.69;80.64;99510.05;105751;1257;61089;-22
2023/09/04 06:24:21;;;;;;;8.60;5.00;;;;;;;16.32;81.07;99508.55;105898;1251;73780;-22
2023/09/04 06:26:48;;;;;;;6.90;3.40;;;;;;;15.93;83.80;99513.95;105861;1251;74344;-22
2023/09/04 06:29:16;;;;;;;5.70;3.80;;;;;;;16.30;82.39;99517.74;105876;1251;72374;-23
2023/09/04 06:31:44;;;;;;;7.10;4.50;;;;;;;16.32;81.13;99520.42;105737;1259;61698;-22
2023/09/04 06:34:12;;;;;;;5.10;3.70;;;;;;;16.37;81.28;99518.80;105743;1258;61234;-22
2023/09/04 06:36:39;;;;;;;8.60;4.60;;;;;;;16.44;81.66;99518.63;105604;1260;73811;-22
2023/09/04 06:39:06;;;;;;;9.60;5.50;;;;;;;15.96;82.91;99518.70;105676;1257;74844;-22
2023/09/04 06:41:33;;;;;;;5.50;3.30;;;;;;;15.69;84.60;99520.77;105648;1251;72670;-22
2023/09/04 06:44:00;;;;;;;5.80;3.80;;;;;;;15.97;84.26;99525.73;105708;1256;61170;-22
2023/09/04 06:46:27;;;;;;;76.70;57.20;;;;;;;16.18;83.12;99527.83;105905;1256;61233;-23
2023/09/04 06:48:54;;;;;;;11.00;9.10;;;;;;;16.03;84.03;99532.05;105859;1257;74460;-22
2023/09/04 06:51:21;;;;;;;15.20;8.90;;;;;;;15.89;84.37;99537.73;105972;1251;74330;-23
2023/09/04 06:53:48;;;;;;;9.90;6.70;;;;;;;15.82;85.68;99542.55;105886;1251;72657;-22
2023/09/04 06:56:15;;;;;;;7.40;3.50;;;;;;;16.01;85.33;99541.15;105920;1251;61089;-22
2023/09/04 06:58:42;;;;;;;6.40;3.70;;;;;;;16.52;83.72;99543.27;105852;1256;61218;-22
2023/09/04 07:01:09;;;;;;;5.60;3.70;;;;;;;16.90;80.95;99541.60;105898;1251;73739;-22
2023/09/04 07:03:36;;;;;;;8.50;4.60;;;;;;;17.01;80.63;99539.87;105951;1257;74220;-23
2023/09/04 07:06:03;;;;;;;10.00;3.90;;;;;;;16.92;81.53;99544.42;105887;1251;72643;-23
2023/09/04 07:08:31;;;;;;;5.40;4.00;;;;;;;16.72;81.99;99549.38;105769;1251;61118;-24
2023/09/04 07:10:58;;;;;;;5.20;4.10;;;;;;;16.51;82.72;99555.31;105860;1251;61144;-23
2023/09/04 07:13:25;;;;;;;5.70;2.80;;;;;;;16.33;83.70;99560.38;105723;1251;74019;-24
2023/09/04 07:15:52;;;;;;;4.60;3.60;;;;;;;16.61;83.25;99565.65;105882;1256;74817;-21
2023/09/04 07:18:19;;;;;;;6.60;3.90;;;;;;;17.01;81.44;99567.20;105879;1251;72617;-21
2023/09/04 07:20:46;;;;;;;6.10;4.40;;;;;;;16.84;81.32;99573.58;105945;1252;61170;-21
2023/09/04 07:23:13;;;;;;;6.20;4.00;;;;;;;16.86;82.06;99577.80;105808;1252;61204;-21
2023/09/04 07:25:56;;;;;;;4.90;4.30;;;;;;;16.75;82.38;99580.39;105916;1254;74262;-23
2023/09/04 07:28:23;;;;;;;10.00;4.80;;;;;;;16.59;82.81;99588.14;106003;1255;74882;-23
2023/09/04 07:30:57;;;;;;;5.30;3.70;;;;;;;16.48;83.80;99590.20;105879;1251;72654;-22
2023/09/04 07:33:23;;;;;;;4.30;3.30;;;;;;;16.91;82.54;99589.04;105530;1251;61154;-22
2023/09/04 07:35:54;;;;;;;6.70;4.70;;;;;;;17.39;80.80;99587.65;105648;1257;61258;-23
2023/09/04 07:38:21;;;;;;;6.40;4.10;;;;;;;17.37;80.24;99589.35;105735;1254;73694;-21
2023/09/04 07:40:58;;;;;;;6.40;4.30;;;;;;;17.20;80.27;99594.75;105960;1257;74863;-22
2023/09/04 07:43:25;;;;;;;7.80;4.70;;;;;;;16.93;81.87;99597.58;105709;1257;72274;-22
2023/09/04 07:45:54;;;;;;;6.10;4.50;;;;;;;16.68;82.93;99605.11;105809;1254;61079;-22
2023/09/04 07:48:22;;;;;;;5.60;4.20;;;;;;;16.54;83.35;99606.89;105861;1258;61214;-22
2023/09/04 07:50:52;;;;;;;6.10;3.00;;;;;;;16.98;83.56;99603.48;105975;1251;74325;-22
2023/09/04 07:53:19;;;;;;;4.20;3.30;;;;;;;17.44;81.56;99599.09;105956;1254;74064;-23
2023/09/04 07:55:47;;;;;;;6.00;3.30;;;;;;;17.43;80.89;99603.70;105715;1258;73197;-22
2023/09/04 07:58:14;;;;;;;4.40;3.50;;;;;;;17.22;81.57;99610.20;105896;1257;61143;-22
2023/09/04 08:00:45;;;;;;;6.70;3.80;;;;;;;16.97;83.06;99614.21;105769;1252;61175;-22
2023/09/04 08:03:13;;;;;;;5.70;3.80;;;;;;;16.73;84.34;99624.84;105533;1251;73819;-22
2023/09/04 08:05:40;;;;;;;7.20;3.00;;;;;;;16.57;85.80;99629.30;105668;1260;74263;-23
2023/09/04 08:08:09;;;;;;;4.50;2.70;;;;;;;16.99;84.89;99630.03;106005;1257;73010;-22
2023/09/04 08:10:49;;;;;;;4.20;3.20;;;;;;;17.45;82.68;99626.64;105869;1253;61116;-22
2023/09/04 08:13:19;;;;;;;4.30;3.40;;;;;;;17.37;81.48;99626.04;105828;1257;61125;-22
2023/09/04 08:15:46;;;;;;;4.60;3.50;;;;;;;17.14;82.01;99629.38;105911;1252;73726;-22
2023/09/04 08:18:13;;;;;;;4.90;3.90;;;;;;;16.90;83.32;99633.14;105687;1257;74280;-22
2023/09/04 08:20:40;;;;;;;3.40;2.60;;;;;;;16.71;85.07;99638.15;105634;1257;72618;-22
2023/09/04 08:23:07;;;;;;;3.60;2.60;;;;;;;17.07;84.09;99641.68;105638;1257;61711;-22
2023/09/04 08:25:36;;;;;;;5.80;2.90;;;;;;;17.49;82.41;99642.40;105749;1256;61160;-22
2023/09/04 08:28:04;;;;;;;4.10;3.20;;;;;;;17.51;81.98;99648.70;105755;1257;72388;-22
2023/09/04 08:30:31;;;;;;;6.90;3.90;;;;;;;17.33;82.06;99649.83;105749;1257;74863;-22
2023/09/04 08:32:59;;;;;;;8.10;4.90;;;;;;;17.01;82.83;99653.33;105856;1251;71656;-22
2023/09/04 08:35:28;;;;;;;5.30;3.20;;;;;;;16.75;85.27;99656.66;105918;1256;61761;-22
2023/09/04 08:37:57;;;;;;;4.80;3.90;;;;;;;17.12;84.80;99658.32;105713;1261;61163;-22
2023/09/04 08:40:24;;;;;;;7.90;4.40;;;;;;;17.40;82.81;99653.33;105898;1252;73383;-22
2023/09/04 08:42:51;;;;;;;5.50;4.40;;;;;;;17.18;82.64;99657.11;105654;1257;74880;-22
2023/09/04 08:45:18;;;;;;;5.90;4.50;;;;;;;16.88;83.39;99658.39;105717;1251;72835;-22
2023/09/04 08:47:45;;;;;;;8.30;4.90;;;;;;;16.65;84.86;99662.55;105736;1260;61157;-22
2023/09/04 08:50:12;;;;;;;6.30;3.00;;;;;;;16.44;85.98;99657.77;105897;1256;61111;-22
2023/09/04 08:52:40;;;;;;;6.20;3.50;;;;;;;16.84;85.90;99660.02;105696;1251;72803;-21
2023/09/04 08:55:08;;;;;;;7.30;4.00;;;;;;;17.14;82.72;99665.59;105681;1254;74385;-21
2023/09/04 08:57:35;;;;;;;6.30;4.70;;;;;;;16.98;82.87;99663.56;105669;1260;71620;-22
2023/09/04 09:00:03;;;;;;;5.60;4.50;;;;;;;16.87;84.22;99663.29;105964;1252;61105;-21
2023/09/04 09:02:30;;;;;;;7.40;5.20;;;;;;;16.65;85.47;99664.31;105579;1257;61134;-22
2023/09/04 09:04:57;;;;;;;6.40;3.80;;;;;;;16.50;86.39;99662.28;105550;1252;73813;-22
2023/09/04 09:07:27;;;;;;;6.10;4.20;;;;;;;16.96;85.50;99662.54;105911;1257;74912;-22
2023/09/04 09:09:55;;;;;;;10.50;4.40;;;;;;;17.31;82.66;99658.44;105746;1260;71543;-22
2023/09/04 09:12:22;;;;;;;7.10;4.70;;;;;;;17.42;82.56;99659.47;105872;1251;61114;-22
2023/09/04 09:14:49;;;;;;;7.60;4.60;;;;;;;17.30;82.73;99662.92;105852;1257;61099;-22
2023/09/04 09:17:18;;;;;;;8.30;5.90;;;;;;;17.13;82.28;99667.77;105858;1251;73814;-22
2023/09/04 09:19:45;;;;;;;5.00;4.00;;;;;;;16.98;83.89;99666.60;105918;1256;74651;-23
2023/09/04 09:22:14;;;;;;;6.40;4.30;;;;;;;17.39;83.39;99667.77;105854;1254;72595;-23
2023/09/04 09:24:50;;;;;;;8.50;5.20;;;;;;;17.85;81.89;99662.82;105636;1253;61021;-21
2023/09/04 09:27:22;;;;;;;5.70;4.50;;;;;;;17.88;80.30;99664.45;105874;1257;61150;-23
2023/09/04 09:30:00;;;;;;;5.80;4.50;;;;;;;17.80;80.36;99666.52;105872;1251;73434;-23
2023/09/04 09:32:32;;;;;;;8.50;5.20;;;;;;;17.70;80.48;99668.91;105675;1251;74759;-22
2023/09/04 09:35:00;;;;;;;5.50;3.40;;;;;;;17.75;81.33;99666.69;105477;1262;73956;-22
2023/09/04 09:37:31;;;;;;;6.60;3.50;;;;;;;18.19;79.65;99664.17;105622;1255;61101;-22
2023/09/04 09:39:58;;;;;;;5.20;3.70;;;;;;;18.63;77.94;99663.99;105755;1257;61191;-22
2023/09/04 09:42:25;;;;;;;5.10;4.20;;;;;;;18.57;77.32;99668.95;105820;1254;74310;-22
2023/09/04 09:44:53;;;;;;;6.50;3.80;;;;;;;18.41;76.96;99669.98;105955;1257;74309;-22
2023/09/04 09:47:20;;;;;;;5.70;3.90;;;;;;;18.11;77.24;99672.48;105730;1251;72727;-23
2023/09/04 09:49:47;;;;;;;4.90;3.50;;;;;;;17.99;78.48;99674.39;105815;1251;61132;-22
2023/09/04 09:52:15;;;;;;;3.60;3.00;;;;;;;18.13;77.36;99673.74;105771;1257;61131;-22
2023/09/04 09:54:44;;;;;;;4.50;2.50;;;;;;;18.20;76.85;99672.13;105548;1251;74201;-22
2023/09/04 09:57:13;;;;;;;6.00;2.80;;;;;;;18.56;74.63;99670.73;105608;1251;74126;-22
2023/09/04 09:59:45;;;;;;;5.10;3.00;;;;;;;18.83;72.22;99670.67;105452;1257;72491;-22
2023/09/04 10:02:22;;;;;;;5.80;3.10;;;;;;;18.85;72.02;99671.30;105721;1254;61020;-22
2023/09/04 10:04:50;;;;;;;4.50;2.80;;;;;;;18.05;71.45;99669.64;105842;1257;61188;-22
2023/09/04 10:07:18;;;;;;;7.70;2.50;;;;;;;17.88;72.15;99671.11;105848;1254;73219;-22
2023/09/04 10:09:46;;;;;;;3.80;2.70;;;;;;;17.93;71.77;99671.84;105749;1251;74177;-22
2023/09/04 10:12:49;;;;;;;4.20;3.10;;;;;;;18.07;71.96;99669.27;105752;1251;72530;-22
2023/09/04 10:15:28;;;;;;;3.30;2.60;;;;;;;17.90;71.68;99669.52;105515;1254;61155;-22
2023/09/04 10:18:05;;;;;;;4.70;2.80;;;;;;;18.08;71.75;99669.77;105700;1257;61199;-22
2023/09/04 10:20:36;;;;;;;12.90;8.10;;;;;;;18.10;72.24;99668.83;105693;1257;73891;-22
2023/09/04 10:23:07;;;;;;;5.00;3.90;;;;;;;18.38;72.60;99667.63;105671;1257;73975;-22
2023/09/04 10:26:00;;;;;;;5.80;2.40;;;;;;;18.47;70.20;99662.87;105725;1254;72464;-22
2023/09/04 10:28:32;;;;;;;4.10;2.40;;;;;;;18.48;69.02;99662.58;105833;1251;61078;-21
2023/09/04 10:31:10;;;;;;;4.40;2.70;;;;;;;19.35;68.34;99668.45;105533;1252;61202;-21
2023/09/04 10:33:38;;;;;;;4.70;2.80;;;;;;;19.58;66.34;99665.33;105814;1252;73392;-22
2023/09/04 10:36:05;;;;;;;4.40;2.80;;;;;;;19.58;65.51;99663.19;105806;1254;74792;-22
2023/09/04 10:38:33;;;;;;;4.70;3.10;;;;;;;19.58;65.93;99666.15;105803;1251;73833;-22
2023/09/04 10:41:01;;;;;;;4.60;3.20;;;;;;;19.61;66.96;99658.66;105695;1257;61907;-22
2023/09/04 10:43:38;;;;;;;5.40;3.00;;;;;;;19.46;68.52;99662.84;105596;1257;61064;-22
2023/09/04 10:46:06;;;;;;;6.30;2.80;;;;;;;19.25;68.47;99668.13;105768;1257;73830;-23
2023/09/04 10:48:47;;;;;;;13.00;6.10;;;;;;;19.42;68.91;99663.52;105711;1251;74621;-22
2023/09/04 10:51:31;;;;;;;10.20;4.00;;;;;;;19.60;69.53;99663.87;105889;1256;72199;-22
2023/09/04 10:54:01;;;;;;;5.30;2.70;;;;;;;19.63;68.00;99658.58;105735;1253;61288;-22
2023/09/04 10:56:29;;;;;;;3.60;2.50;;;;;;;19.52;63.57;99658.75;105744;1259;61151;-23
2023/09/04 10:59:00;;;;;;;3.60;1.90;;;;;;;19.18;63.62;99658.98;105618;1254;74565;-22
2023/09/04 11:01:37;;;;;;;4.70;2.10;;;;;;;19.07;62.95;99650.98;105560;1259;76133;-22
2023/09/04 11:04:07;;;;;;;5.10;2.10;;;;;;;18.88;62.80;99653.80;105593;1254;73149;-22
2023/09/04 11:06:39;;;;;;;3.90;2.00;;;;;;;18.98;63.76;99653.64;105632;1251;61198;-22
2023/09/04 11:09:12;;;;;;;5.40;2.70;;;;;;;19.11;63.90;99651.86;105717;1251;61178;-22
2023/09/04 11:11:39;;;;;;;4.50;2.20;;;;;;;19.23;64.83;99651.63;105725;1251;75356;-22
2023/09/04 11:14:06;;;;;;;3.30;1.80;;;;;;;19.20;62.39;99654.27;106005;1251;73699;-22
2023/09/04 11:16:38;;;;;;;2.70;2.00;;;;;;;19.26;62.72;99658.05;105963;1251;72958;-22
2023/09/04 11:19:11;;;;;;;8.10;2.30;;;;;;;19.34;63.02;99654.73;105648;1251;61167;-22
2023/09/04 11:21:41;;;;;;;5.90;1.80;;;;;;;19.58;63.04;99652.65;105663;1251;61136;-22
2023/09/04 11:24:08;;;;;;;4.80;2.00;;;;;;;19.69;61.09;99652.52;105667;1251;74045;-22
2023/09/04 11:26:35;;;;;;;3.70;1.90;;;;;;;19.21;59.36;99654.70;105634;1255;74952;-22
2023/09/04 11:29:04;;;;;;;7.10;1.60;;;;;;;19.51;60.06;99656.70;105726;1251;72456;-22
2023/09/04 11:31:32;;;;;;;3.00;2.10;;;;;;;19.13;58.37;99648.46;105717;1254;61215;-22